createdAt,value
2022-11-25T00:04:43.207Z,-0.77
2022-11-25T00:10:45.988Z,-0.01
2022-11-25T00:16:48.710Z,-0.41
2022-11-25T00:23:03.785Z,-0.56
2022-11-25T00:35:23.823Z,-0.31
2022-11-25T00:41:58.145Z,-0.60
2022-11-25T00:54:22.392Z,-0.12
2022-11-25T01:00:27.544Z,0.11
2022-11-25T01:06:29.596Z,-1.17
2022-11-25T01:12:56.424Z,0.11
2022-11-25T01:19:01.548Z,0.06
2022-11-25T01:25:09.857Z,-0.73
2022-11-25T01:44:22.209Z,0.13
2022-11-25T01:50:47.628Z,-0.34
2022-11-25T02:03:47.734Z,-0.61
2022-11-25T02:16:29.490Z,-0.02
2022-11-25T02:23:19.889Z,0.07
2022-11-25T02:36:08.264Z,0.07
2022-11-25T02:49:08.387Z,0.09
2022-11-25T03:01:38.701Z,-0.45
2022-11-25T03:07:53.976Z,-0.25
2022-11-25T03:14:00.523Z,-0.58
2022-11-25T03:20:02.737Z,-1.25
2022-11-25T03:26:09.845Z,-0.58
2022-11-25T03:32:14.976Z,-0.92
2022-11-25T03:38:21.284Z,-0.41
2022-11-25T03:50:45.293Z,-0.57
2022-11-25T03:56:52.020Z,-0.37
2022-11-25T04:02:54.640Z,0.16
2022-11-25T04:22:36.875Z,0.18
2022-11-25T04:28:44.559Z,-0.41
2022-11-25T04:34:48.934Z,-0.49
2022-11-25T04:40:54.689Z,0.16
2022-11-25T04:47:07.836Z,0.22
2022-11-25T04:53:11.216Z,-0.11
2022-11-25T04:59:32.000Z,0.23
2022-11-25T05:05:39.672Z,-0.35
2022-11-25T05:11:42.351Z,-0.11
2022-11-25T05:17:44.330Z,0.15
2022-11-25T05:23:54.435Z,-0.20
2022-11-25T05:30:03.006Z,0.33
2022-11-25T05:42:22.205Z,-0.39
2022-11-25T05:48:40.642Z,-0.40
2022-11-25T05:54:43.417Z,0.28
2022-11-25T06:00:45.238Z,-0.12
2022-11-25T06:06:47.149Z,-0.08
2022-11-25T06:12:48.938Z,0.25
2022-11-25T06:18:50.983Z,-0.24
2022-11-25T06:25:01.918Z,0.40
2022-11-25T06:31:13.579Z,0.53
2022-11-25T06:37:21.291Z,-0.09
2022-11-25T06:43:28.783Z,0.56
2022-11-25T06:49:30.631Z,0.61
2022-11-25T06:55:33.103Z,0.20
2022-11-25T07:01:39.756Z,-0.05
2022-11-25T07:07:41.686Z,0.06
2022-11-25T07:13:43.632Z,0.51
2022-11-25T07:19:45.934Z,0.55
2022-11-25T07:25:47.701Z,0.54
2022-11-25T07:31:49.486Z,0.80
2022-11-25T07:37:51.298Z,0.72
2022-11-25T07:43:55.951Z,0.67
2022-11-25T07:49:58.001Z,0.74
2022-11-25T07:56:03.252Z,0.97
2022-11-25T08:02:05.054Z,0.82
2022-11-25T08:08:06.949Z,0.97
2022-11-25T08:14:10.483Z,0.58
2022-11-25T08:20:12.618Z,1.11
2022-11-25T08:26:22.370Z,0.63
2022-11-25T08:32:24.072Z,0.86
2022-11-25T08:38:26.831Z,1.29
2022-11-25T08:44:30.196Z,0.92
2022-11-25T08:50:32.740Z,0.99
2022-11-25T08:56:35.020Z,0.64
2022-11-25T09:02:37.044Z,1.04
2022-11-25T09:08:40.571Z,1.03
2022-11-25T09:14:42.448Z,1.35
2022-11-25T09:20:44.217Z,1.03
2022-11-25T09:26:46.551Z,1.09
2022-11-25T09:32:54.557Z,1.28
2022-11-25T09:38:56.543Z,0.50
2022-11-25T09:45:24.930Z,1.42
2022-11-25T09:51:41.881Z,1.46
2022-11-25T09:57:43.643Z,1.52
2022-11-25T10:03:53.507Z,1.21
2022-11-25T10:09:56.971Z,1.34
2022-11-25T10:16:04.432Z,1.25
2022-11-25T10:22:37.652Z,1.58
2022-11-25T10:28:41.528Z,1.59
2022-11-25T10:34:48.789Z,1.38
2022-11-25T10:40:51.832Z,1.64
2022-11-25T10:47:21.874Z,1.69
2022-11-25T10:53:27.026Z,1.68
2022-11-25T10:59:39.848Z,1.64
2022-11-25T11:05:55.750Z,1.61
2022-11-25T11:11:57.596Z,1.46
2022-11-25T11:18:14.765Z,0.96
2022-11-25T11:24:38.245Z,1.47
2022-11-25T11:30:56.888Z,1.29
2022-11-25T11:37:18.662Z,1.69
2022-11-25T11:44:01.986Z,1.74
2022-11-25T11:50:25.110Z,1.66
2022-11-25T11:56:38.908Z,1.73
2022-11-25T12:03:24.062Z,1.67
2022-11-25T12:09:29.747Z,1.69
2022-11-25T12:15:41.694Z,1.71
2022-11-25T12:22:00.587Z,1.68
2022-11-25T12:28:15.663Z,1.71
2022-11-25T12:34:34.005Z,1.26
2022-11-25T12:40:50.150Z,1.28
2022-11-25T12:46:55.387Z,1.08
2022-11-25T12:53:14.406Z,1.64
2022-11-25T13:12:51.036Z,1.63
2022-11-25T13:18:58.615Z,0.29
2022-11-25T13:25:00.949Z,0.58
2022-11-25T13:31:15.409Z,1.41
2022-11-25T13:37:42.128Z,1.31
2022-11-25T13:44:05.186Z,1.32
2022-11-25T13:50:21.815Z,1.38
2022-11-25T13:56:35.938Z,1.24
2022-11-25T14:02:46.104Z,0.91
2022-11-25T14:08:57.019Z,1.26
2022-11-25T14:15:30.221Z,1.18
2022-11-25T14:22:11.455Z,1.12
2022-11-25T14:28:18.501Z,1.12
2022-11-25T14:34:49.378Z,0.81
2022-11-25T14:41:33.214Z,1.06
2022-11-25T14:47:39.160Z,0.83
2022-11-25T14:53:51.596Z,0.82
2022-11-25T14:59:58.702Z,0.73
2022-11-25T15:06:21.191Z,0.79
2022-11-25T15:12:27.201Z,0.79
2022-11-25T15:18:29.208Z,0.85
2022-11-25T15:24:55.102Z,0.83
2022-11-25T16:04:36.035Z,0.07
2022-11-25T20:03:57.622Z,0.20
2022-11-25T20:35:43.973Z,0.14
2022-11-25T21:26:28.140Z,-0.70
2022-11-25T21:32:29.907Z,0.03
2022-11-25T21:38:33.955Z,-0.95
2022-11-25T21:44:39.714Z,-0.08
2022-11-25T21:57:18.410Z,0.37
2022-11-25T22:16:57.071Z,0.15
2022-11-25T23:16:51.357Z,-0.06
